Terminal Aerodrome Forecast
Issued by NWS

Home | Current Version | Previous Version | Text Only | Print | Product List | Glossary On
Versions: 1 2 3 4 5 6 7 8 9 10 11 12 13
392
FTUS42 KMHX 041720
TAFOAJ
TAF
KOAJ 041720Z 0418/0518 VRB04KT P6SM VCSH OVC070
     FM050000 07005KT 4SM -SHRA BR OVC030
     FM050300 09005KT 2SM SHRA BR OVC015
     FM050500 VRB04KT 2SM -RA BR SCT002 OVC007
     FM051300 34006KT 6SM BR OVC015
     FM051500 34006KT P6SM BKN100
      AMD LTD TO CLD VIS AND WIND=

USA.gov is the U.S. government's official web portal to all federal, state and local government web resources and services.